Time;durP1;ratioP1;P1;durP2;ratioP2;P2;SDS_P1;SDS_P2;PMS_P1;PMS_P2;Temp;Humidity;BMP_temperature;BMP_pressure;BME280_temperature;BME280_humidity;BME280_pressure;Samples;Min_cycle;Max_cycle;Signal;HPM_P1;HPM_P2
2022/04/21 06:02:29;;;;;;;197.85;64.07;;;;;;;;;;5009651;23;20047;-86
2022/04/21 06:04:59;;;;;;;178.25;64.03;;;;;;;;;;4934358;28;20052;-86
2022/04/21 06:07:26;;;;;;;189.88;64.97;;;;;;;;;;4933469;28;20134;-87
2022/04/21 06:09:52;;;;;;;244.63;64.80;;;;;;;;;;4934285;28;20102;-88
2022/04/21 06:12:19;;;;;;;203.10;63.67;;;;;;;;;;4932643;28;20599;-87
2022/04/21 06:14:46;;;;;;;196.77;61.35;;;;;;;;;;4933972;28;20071;-88
2022/04/21 06:17:12;;;;;;;176.75;61.25;;;;;;;;;;4933415;28;20074;-87
2022/04/21 06:19:39;;;;;;;185.10;62.72;;;;;;;;;;4934415;28;20051;-88
2022/04/21 06:22:05;;;;;;;138.23;58.67;;;;;;;;;;4933118;28;20067;-85
2022/04/21 06:24:32;;;;;;;134.05;57.88;;;;;;;;;;4933610;28;20047;-86
2022/04/21 06:26:58;;;;;;;143.80;58.50;;;;;;;;;;4932202;28;20503;-86
2022/04/21 06:29:25;;;;;;;145.68;58.25;;;;;;;;;;4933142;28;20067;-85
2022/04/21 06:31:51;;;;;;;112.72;54.38;;;;;;;;;;4934147;28;20200;-87
2022/04/21 06:34:18;;;;;;;126.57;55.08;;;;;;;;;;4933249;28;20056;-86
2022/04/21 06:36:45;;;;;;;107.88;52.65;;;;;;;;;;4933583;28;20063;-85
2022/04/21 06:39:11;;;;;;;123.35;55.05;;;;;;;;;;4932474;28;20048;-86
2022/04/21 06:41:38;;;;;;;111.47;53.10;;;;;;;;;;4933598;28;20071;-86
2022/04/21 06:49:35;;;;;;;115.75;54.05;;;;;;;;;;4932052;28;20059;-86
2022/04/21 06:52:03;;;;;;;126.40;56.70;;;;;;;;;;4963726;28;20083;-85
2022/04/21 06:54:30;;;;;;;118.43;54.13;;;;;;;;;;4933093;28;20064;-84
2022/04/21 06:56:56;;;;;;;110.63;53.88;;;;;;;;;;4933476;28;20335;-85
2022/04/21 06:59:23;;;;;;;120.35;55.40;;;;;;;;;;4932499;28;20468;-84
2022/04/21 07:01:49;;;;;;;120.88;55.22;;;;;;;;;;4933518;28;20134;-84
2022/04/21 07:04:16;;;;;;;130.68;57.03;;;;;;;;;;4932636;28;20056;-84
2022/04/21 07:06:43;;;;;;;142.57;56.95;;;;;;;;;;4933235;28;20090;-84
2022/04/21 07:09:09;;;;;;;161.07;58.65;;;;;;;;;;4932423;28;20079;-84
2022/04/21 07:11:38;;;;;;;136.82;57.88;;;;;;;;;;4933375;28;20130;-86
2022/04/21 07:14:05;;;;;;;133.95;59.35;;;;;;;;;;4932537;28;20544;-85
2022/04/21 07:16:32;;;;;;;131.60;58.63;;;;;;;;;;4931943;28;20480;-84
2022/04/21 07:18:58;;;;;;;168.63;58.70;;;;;;;;;;4932794;28;20044;-84
2022/04/21 07:21:25;;;;;;;146.32;59.50;;;;;;;;;;4932366;28;20520;-85
2022/04/21 07:23:51;;;;;;;170.82;59.50;;;;;;;;;;4934071;28;20139;-88
2022/04/21 07:26:18;;;;;;;137.75;59.15;;;;;;;;;;4937130;28;20154;-87
2022/04/21 07:28:45;;;;;;;146.65;61.05;;;;;;;;;;4937336;28;20436;-88
2022/04/21 07:31:12;;;;;;;130.88;62.67;;;;;;;;;;4935692;28;20588;-87
2022/04/21 07:33:39;;;;;;;146.40;60.72;;;;;;;;;;4936138;28;20050;-87
2022/04/21 07:36:06;;;;;;;135.32;60.78;;;;;;;;;;4935245;28;20047;-87
2022/04/21 07:38:34;;;;;;;123.03;57.65;;;;;;;;;;4936040;28;20051;-88
2022/04/21 07:41:02;;;;;;;114.18;56.75;;;;;;;;;;4935687;28;20047;-88
2022/04/21 07:43:32;;;;;;;122.18;59.65;;;;;;;;;;4936274;28;20485;-87
2022/04/21 07:45:58;;;;;;;115.30;58.22;;;;;;;;;;4935389;28;20091;-87
2022/04/21 07:49:44;;;;;;;114.22;56.58;;;;;;;;;;4934756;28;20047;-86
2022/04/21 07:51:12;;;;;;;125.75;56.55;;;;;;;;;;4935358;28;20060;-86
2022/04/21 07:53:38;;;;;;;122.60;55.70;;;;;;;;;;4936129;28;20082;-88
2022/04/21 07:56:05;;;;;;;126.30;57.55;;;;;;;;;;4936371;28;20214;-87
2022/04/21 07:58:31;;;;;;;109.50;56.65;;;;;;;;;;4935944;28;20048;-87
2022/04/21 08:00:58;;;;;;;131.57;59.47;;;;;;;;;;4932488;28;20507;-89
2022/04/21 08:03:26;;;;;;;114.55;56.75;;;;;;;;;;4962165;28;20179;-87
2022/04/21 08:05:52;;;;;;;112.13;58.30;;;;;;;;;;4937668;28;20516;-85
2022/04/21 08:08:19;;;;;;;124.18;57.70;;;;;;;;;;4920796;28;20095;-85
2022/04/21 08:10:45;;;;;;;129.30;58.25;;;;;;;;;;4935853;28;20075;-86
2022/04/21 08:13:16;;;;;;;120.63;58.75;;;;;;;;;;4935150;28;20056;-87
2022/04/21 08:15:47;;;;;;;128.60;60.03;;;;;;;;;;4935179;28;20491;-87
2022/04/21 08:18:13;;;;;;;156.10;62.08;;;;;;;;;;4934542;28;20055;-87
2022/04/21 08:20:44;;;;;;;116.95;57.30;;;;;;;;;;4935076;28;20087;-87
2022/04/21 08:23:10;;;;;;;140.98;62.00;;;;;;;;;;4930641;28;20082;-87
2022/04/21 08:34:22;;;;;;;126.07;59.15;;;;;;;;;;4930034;28;20052;-86
2022/04/21 08:36:53;;;;;;;119.22;58.42;;;;;;;;;;4930636;28;20048;-87
2022/04/21 08:39:20;;;;;;;121.80;59.53;;;;;;;;;;4921746;28;20465;-87
2022/04/21 08:41:51;;;;;;;119.13;58.67;;;;;;;;;;4923058;28;20087;-88
2022/04/21 08:44:21;;;;;;;120.35;59.22;;;;;;;;;;4960019;28;20135;-85
2022/04/21 08:46:48;;;;;;;119.22;59.38;;;;;;;;;;4931153;28;20119;-85
2022/04/21 08:49:18;;;;;;;123.22;61.08;;;;;;;;;;4929948;28;20055;-86
2022/04/21 08:51:45;;;;;;;113.05;57.20;;;;;;;;;;4928846;28;20074;-86
2022/04/21 08:54:11;;;;;;;118.78;58.38;;;;;;;;;;4929933;28;20126;-85
2022/04/21 08:56:38;;;;;;;120.10;59.00;;;;;;;;;;4929248;28;20075;-84
2022/04/21 08:59:05;;;;;;;115.30;57.95;;;;;;;;;;4929224;28;20083;-84
2022/04/21 09:01:32;;;;;;;115.93;57.13;;;;;;;;;;4929084;28;20052;-85
2022/04/21 09:03:59;;;;;;;107.03;53.88;;;;;;;;;;4930732;28;20055;-87
2022/04/21 09:06:26;;;;;;;109.85;56.97;;;;;;;;;;4930280;28;20126;-83
2022/04/21 09:09:12;;;;;;;115.45;56.38;;;;;;;;;;4924633;28;20136;-88
2022/04/21 09:11:39;;;;;;;102.63;54.47;;;;;;;;;;4927852;28;20592;-87
2022/04/21 09:14:06;;;;;;;105.28;54.88;;;;;;;;;;4929804;28;20843;-86
2022/04/21 09:16:34;;;;;;;106.75;55.08;;;;;;;;;;4929984;28;20071;-87
2022/04/21 09:19:01;;;;;;;102.38;54.70;;;;;;;;;;4929219;28;20056;-87
2022/04/21 09:21:36;;;;;;;103.43;55.40;;;;;;;;;;4956497;28;20051;-87
2022/04/21 09:24:19;;;;;;;100.45;53.53;;;;;;;;;;4928950;28;20067;-86
2022/04/21 09:26:46;;;;;;;92.00;52.83;;;;;;;;;;4927296;28;20474;-88
2022/04/21 09:29:24;;;;;;;94.78;51.63;;;;;;;;;;4926346;28;20112;-87
2022/04/21 09:31:58;;;;;;;94.65;51.83;;;;;;;;;;4930546;28;20078;-88
2022/04/21 09:34:31;;;;;;;85.65;48.97;;;;;;;;;;4930803;28;20051;-87
2022/04/21 09:37:00;;;;;;;81.38;46.53;;;;;;;;;;4929732;28;20119;-87
2022/04/21 09:39:27;;;;;;;85.70;48.45;;;;;;;;;;4928356;28;20127;-88
2022/04/21 09:41:54;;;;;;;78.50;44.72;;;;;;;;;;4929811;28;20103;-89
2022/04/21 09:47:20;;;;;;;;;;;;;;;;;;4935755;28;20846;-89
2022/04/21 09:49:46;;;;;;;75.90;45.28;;;;;;;;;;4938586;28;20005;-89
2022/04/21 09:52:25;;;;;;;77.63;44.08;;;;;;;;;;4931498;28;20142;-89
2022/04/21 09:54:52;;;;;;;72.68;42.33;;;;;;;;;;4930852;28;20066;-88
2022/04/21 09:57:30;;;;;;;74.97;44.10;;;;;;;;;;4932139;28;20134;-88
2022/04/21 09:59:59;;;;;;;70.28;42.28;;;;;;;;;;4937016;28;20035;-88
2022/04/21 10:02:29;;;;;;;69.32;43.28;;;;;;;;;;4937105;28;20056;-89
2022/04/21 10:04:58;;;;;;;71.47;43.08;;;;;;;;;;4934876;28;20083;-89
2022/04/21 10:07:26;;;;;;;73.78;43.50;;;;;;;;;;4933662;28;20075;-89
2022/04/21 10:09:54;;;;;;;68.70;41.45;;;;;;;;;;4937630;29;20054;-92
2022/04/21 10:12:22;;;;;;;61.10;39.22;;;;;;;;;;4934922;28;20099;-88
2022/04/21 10:14:50;;;;;;;71.82;41.08;;;;;;;;;;4933840;29;20405;-87
2022/04/21 10:17:17;;;;;;;68.13;41.15;;;;;;;;;;4931256;29;20412;-86
2022/04/21 10:19:49;;;;;;;65.32;38.47;;;;;;;;;;4935115;29;20075;-87
2022/04/21 10:22:23;;;;;;;63.85;39.88;;;;;;;;;;4932835;28;20555;-87
2022/04/21 10:24:54;;;;;;;58.35;37.00;;;;;;;;;;4940609;28;20059;-86
2022/04/21 10:27:38;;;;;;;61.13;38.60;;;;;;;;;;4930949;29;20043;-89
2022/04/21 10:30:13;;;;;;;56.30;36.25;;;;;;;;;;4941337;28;20052;-88
2022/04/21 10:32:54;;;;;;;54.17;35.17;;;;;;;;;;4919396;29;20058;-86
2022/04/21 10:35:24;;;;;;;49.92;33.38;;;;;;;;;;4902747;29;20535;-87
2022/04/21 10:38:12;;;;;;;57.33;34.88;;;;;;;;;;4939217;29;20058;-88
2022/04/21 10:40:55;;;;;;;46.08;33.03;;;;;;;;;;4951973;28;20511;-90
2022/04/21 10:43:22;;;;;;;45.63;30.95;;;;;;;;;;4936626;29;20075;-88
2022/04/21 10:46:17;;;;;;;46.85;30.40;;;;;;;;;;4934124;29;20054;-86
2022/04/21 10:48:44;;;;;;;47.42;32.38;;;;;;;;;;4926332;29;20526;-89
2022/04/21 10:51:12;;;;;;;48.67;33.88;;;;;;;;;;4933963;29;20043;-88
2022/04/21 11:00:08;;;;;;;51.80;33.03;;;;;;;;;;4933699;29;20052;-89
2022/04/21 11:02:43;;;;;;;48.97;31.23;;;;;;;;;;4938984;28;20063;-88
2022/04/21 11:05:22;;;;;;;47.35;31.75;;;;;;;;;;4931808;28;20048;-87
2022/04/21 11:07:53;;;;;;;45.25;30.80;;;;;;;;;;4933303;28;20075;-88
2022/04/21 11:10:38;;;;;;;45.90;31.00;;;;;;;;;;4932426;28;20048;-88
2022/04/21 11:13:07;;;;;;;47.55;31.02;;;;;;;;;;4927642;28;20151;-89
2022/04/21 11:15:50;;;;;;;45.28;29.65;;;;;;;;;;4932880;28;20087;-88
2022/04/21 11:18:30;;;;;;;40.40;28.15;;;;;;;;;;4932930;28;20048;-88
2022/04/21 11:21:19;;;;;;;40.70;28.65;;;;;;;;;;4932562;28;20054;-88
2022/04/21 11:23:45;;;;;;;40.15;29.05;;;;;;;;;;4932670;28;20058;-88
2022/04/21 11:26:12;;;;;;;35.15;24.33;;;;;;;;;;4933854;28;20071;-88
2022/04/21 11:28:43;;;;;;;76.70;52.88;;;;;;;;;;4932452;29;20075;-88
2022/04/21 11:31:12;;;;;;;30.25;19.95;;;;;;;;;;4931755;28;20056;-88
2022/04/21 11:33:39;;;;;;;31.80;20.52;;;;;;;;;;4934228;28;20675;-88
2022/04/21 11:36:07;;;;;;;33.80;21.58;;;;;;;;;;4933604;28;20599;-90
2022/04/21 11:38:42;;;;;;;28.02;20.88;;;;;;;;;;4932937;28;20091;-89
2022/04/21 11:41:11;;;;;;;30.35;21.35;;;;;;;;;;4933096;28;20569;-88
2022/04/21 11:43:44;;;;;;;;;;;;;;;;;;4940029;28;20508;-89
2022/04/21 11:46:12;;;;;;;33.92;23.58;;;;;;;;;;4939431;28;19965;-89
2022/04/21 11:48:40;;;;;;;;;;;;;;;;;;4939425;28;20051;-89
2022/04/21 11:51:08;;;;;;;34.40;23.67;;;;;;;;;;4940512;28;19950;-87
2022/04/21 11:53:40;;;;;;;33.75;22.13;;;;;;;;;;4936574;28;20066;-89
2022/04/21 11:56:08;;;;;;;36.13;24.33;;;;;;;;;;4933848;28;20067;-90
2022/04/21 11:58:36;;;;;;;;;;;;;;;;;;4942729;28;20566;-89
2022/04/21 12:06:50;;;;;;;32.38;22.13;;;;;;;;;;4933039;28;20040;-90
2022/04/21 12:09:34;;;;;;;35.50;23.35;;;;;;;;;;4940911;28;20040;-90
2022/04/21 12:12:04;;;;;;;31.90;23.30;;;;;;;;;;4944213;28;20039;-90
2022/04/21 12:14:31;;;;;;;29.98;22.58;;;;;;;;;;4936326;28;20102;-90
2022/04/21 12:16:59;;;;;;;34.60;23.65;;;;;;;;;;4932764;28;20052;-89
2022/04/21 12:19:39;;;;;;;35.23;24.00;;;;;;;;;;4966212;28;20059;-89
2022/04/21 12:22:16;;;;;;;33.75;24.17;;;;;;;;;;4938300;28;20086;-89
2022/04/21 12:24:43;;;;;;;33.65;23.38;;;;;;;;;;4940790;28;20110;-88
2022/04/21 12:27:15;;;;;;;34.72;24.08;;;;;;;;;;4935662;28;20087;-88
2022/04/21 12:29:53;;;;;;;35.28;24.42;;;;;;;;;;4942177;29;20122;-89
2022/04/21 12:32:23;;;;;;;31.63;20.83;;;;;;;;;;4933987;28;20047;-88
2022/04/21 12:34:50;;;;;;;34.88;24.27;;;;;;;;;;4930296;28;20048;-88
2022/04/21 12:37:33;;;;;;;38.03;25.52;;;;;;;;;;4933781;28;20135;-88
2022/04/21 12:40:04;;;;;;;36.15;24.23;;;;;;;;;;4935387;28;20075;-88
2022/04/21 12:42:50;;;;;;;36.65;25.52;;;;;;;;;;4928246;28;20044;-88
2022/04/21 12:45:17;;;;;;;33.35;23.15;;;;;;;;;;4926398;28;20476;-88
2022/04/21 12:47:49;;;;;;;35.88;24.23;;;;;;;;;;4935332;28;20063;-88
2022/04/21 12:50:23;;;;;;;33.65;24.20;;;;;;;;;;4935011;28;20504;-87
2022/04/21 12:52:53;;;;;;;31.05;22.98;;;;;;;;;;4935198;28;20086;-88
2022/04/21 12:55:28;;;;;;;35.92;25.92;;;;;;;;;;4934555;28;20118;-88
2022/04/21 12:58:10;;;;;;;39.75;24.85;;;;;;;;;;4934691;28;20383;-87
2022/04/21 13:00:40;;;;;;;30.45;21.92;;;;;;;;;;4933710;28;20099;-86
2022/04/21 13:03:10;;;;;;;40.25;25.73;;;;;;;;;;4933942;28;20746;-85
2022/04/21 13:05:49;;;;;;;36.65;23.85;;;;;;;;;;4933544;28;20047;-87
2022/04/21 13:08:16;;;;;;;39.47;24.50;;;;;;;;;;4933035;28;20130;-87
2022/04/21 13:10:43;;;;;;;39.25;24.17;;;;;;;;;;4935291;28;20067;-80
2022/04/21 13:13:09;;;;;;;31.63;22.50;;;;;;;;;;4934096;28;20534;-90
2022/04/21 13:15:36;;;;;;;34.65;23.90;;;;;;;;;;4934814;28;20472;-89
2022/04/21 13:18:03;;;;;;;29.73;21.40;;;;;;;;;;4934687;28;20052;-85
2022/04/21 13:23:16;;;;;;;36.53;23.83;;;;;;;;;;4934245;28;20047;-91
2022/04/21 13:25:43;;;;;;;33.90;20.67;;;;;;;;;;4935030;28;20126;-92
2022/04/21 13:28:10;;;;;;;32.15;22.10;;;;;;;;;;4933882;28;20142;-92
2022/04/21 13:30:37;;;;;;;28.20;20.77;;;;;;;;;;4935187;28;20393;-92
2022/04/21 13:33:23;;;;;;;29.48;20.83;;;;;;;;;;4935309;28;20103;-90
2022/04/21 13:35:54;;;;;;;28.83;19.13;;;;;;;;;;4933984;28;20067;-90
2022/04/21 13:38:22;;;;;;;26.17;19.30;;;;;;;;;;4934800;28;20592;-92
2022/04/21 13:40:48;;;;;;;32.70;21.70;;;;;;;;;;4932904;28;20063;-92
2022/04/21 13:43:15;;;;;;;24.95;19.08;;;;;;;;;;4934339;28;20059;-92
2022/04/21 13:46:02;;;;;;;31.42;21.40;;;;;;;;;;4934895;28;20051;-91
2022/04/21 13:48:29;;;;;;;25.58;20.77;;;;;;;;;;4934421;28;20067;-92
2022/04/21 13:50:55;;;;;;;31.25;20.80;;;;;;;;;;4935055;28;20047;-92
2022/04/21 13:53:22;;;;;;;25.83;18.70;;;;;;;;;;4934086;28;20122;-91
2022/04/21 13:55:49;;;;;;;30.83;21.52;;;;;;;;;;4935250;28;20082;-91
2022/04/21 13:58:16;;;;;;;25.08;18.52;;;;;;;;;;4934053;28;20405;-88
2022/04/21 14:00:45;;;;;;;29.38;20.92;;;;;;;;;;4936921;28;20090;-91
2022/04/21 14:03:13;;;;;;;25.50;17.98;;;;;;;;;;4942846;28;20043;-90
2022/04/21 14:05:40;;;;;;;18.40;14.93;;;;;;;;;;4934212;28;20043;-90
2022/04/21 14:08:08;;;;;;;16.98;13.60;;;;;;;;;;4939242;28;20166;-90
2022/04/21 14:10:36;;;;;;;20.10;14.07;;;;;;;;;;4931935;28;20055;-89
2022/04/21 14:13:03;;;;;;;20.25;15.98;;;;;;;;;;4934049;28;20090;-90
2022/04/21 14:15:30;;;;;;;18.73;15.37;;;;;;;;;;4936397;28;20134;-89
2022/04/21 14:17:58;;;;;;;20.40;13.68;;;;;;;;;;4944115;28;20286;-90
2022/04/21 14:20:24;;;;;;;18.92;14.82;;;;;;;;;;4934882;28;20134;-90
2022/04/21 14:22:51;;;;;;;19.75;15.48;;;;;;;;;;4930065;28;20083;-90
2022/04/21 14:25:19;;;;;;;17.00;14.20;;;;;;;;;;4932903;28;20051;-91
2022/04/21 14:27:48;;;;;;;17.65;14.18;;;;;;;;;;4936082;28;20075;-91
2022/04/21 14:30:15;;;;;;;17.83;14.23;;;;;;;;;;4933498;28;20072;-90
2022/04/21 14:32:42;;;;;;;20.75;14.25;;;;;;;;;;4934089;28;20587;-89
2022/04/21 14:35:08;;;;;;;24.02;14.02;;;;;;;;;;4935680;28;20489;-90
2022/04/21 14:45:51;;;;;;;25.05;20.50;;;;;;;;;;4941640;28;20090;-90
2022/04/21 14:48:18;;;;;;;24.85;21.17;;;;;;;;;;4940651;28;20521;-89
2022/04/21 14:50:45;;;;;;;29.40;22.10;;;;;;;;;;4941694;28;20081;-90
2022/04/21 14:53:11;;;;;;;28.77;19.80;;;;;;;;;;4939917;28;20079;-89
2022/04/21 14:55:40;;;;;;;26.50;19.25;;;;;;;;;;4941095;28;20063;-90
2022/04/21 14:58:07;;;;;;;25.88;18.92;;;;;;;;;;4943626;28;20075;-89
2022/04/21 15:00:34;;;;;;;27.50;19.38;;;;;;;;;;4942343;29;20051;-91
2022/04/21 15:03:01;;;;;;;35.95;20.70;;;;;;;;;;4942080;28;20043;-92
2022/04/21 15:05:28;;;;;;;28.27;19.65;;;;;;;;;;4940376;28;20058;-90
2022/04/21 15:07:54;;;;;;;31.27;21.85;;;;;;;;;;4956888;28;20090;-91
2022/04/21 15:10:21;;;;;;;25.48;18.42;;;;;;;;;;4941505;28;20138;-90
2022/04/21 15:12:48;;;;;;;27.98;21.13;;;;;;;;;;4939880;28;20070;-90
2022/04/21 15:15:14;;;;;;;25.40;19.15;;;;;;;;;;4940493;28;20078;-90
2022/04/21 15:17:41;;;;;;;26.48;18.88;;;;;;;;;;4942258;28;20579;-90
2022/04/21 15:20:26;;;;;;;28.77;19.55;;;;;;;;;;4940889;28;20105;-90
2022/04/21 15:22:52;;;;;;;28.63;20.77;;;;;;;;;;4944007;29;20126;-88
2022/04/21 15:25:19;;;;;;;34.38;20.92;;;;;;;;;;4941503;28;20071;-89
2022/04/21 15:27:46;;;;;;;32.88;21.00;;;;;;;;;;4942340;29;20052;-92
2022/04/21 15:30:13;;;;;;;21.83;17.58;;;;;;;;;;4938892;28;20083;-89
2022/04/21 15:32:40;;;;;;;28.38;20.80;;;;;;;;;;4941507;28;20570;-90
2022/04/21 15:35:07;;;;;;;34.45;18.35;;;;;;;;;;4955908;28;20067;-90
2022/04/21 15:37:34;;;;;;;30.33;21.08;;;;;;;;;;4937302;28;20127;-90
2022/04/21 15:40:04;;;;;;;32.35;21.52;;;;;;;;;;4947319;28;20171;-90
2022/04/21 15:42:31;;;;;;;26.98;21.65;;;;;;;;;;4943523;28;20074;-90
2022/04/21 15:44:58;;;;;;;30.13;22.67;;;;;;;;;;4946214;28;20095;-90
2022/04/21 15:47:24;;;;;;;27.85;20.98;;;;;;;;;;4945079;28;20129;-91
2022/04/21 15:49:51;;;;;;;30.40;21.67;;;;;;;;;;4946300;28;20052;-90
2022/04/21 15:52:18;;;;;;;33.72;22.95;;;;;;;;;;4947117;28;20085;-91
2022/04/21 16:00:15;;;;;;;30.45;23.85;;;;;;;;;;4946183;28;20103;-91
2022/04/21 16:02:46;;;;;;;33.42;21.13;;;;;;;;;;4926449;28;20062;-90
2022/04/21 16:05:13;;;;;;;38.42;24.85;;;;;;;;;;4925253;28;20229;-90
2022/04/21 16:07:41;;;;;;;41.13;27.20;;;;;;;;;;4926029;29;20393;-90
2022/04/21 16:10:08;;;;;;;37.20;27.38;;;;;;;;;;4912784;29;20135;-92
2022/04/21 16:12:35;;;;;;;43.78;27.27;;;;;;;;;;4915597;29;20040;-91
2022/04/21 16:15:01;;;;;;;37.88;24.80;;;;;;;;;;4913661;29;20091;-89
2022/04/21 16:17:28;;;;;;;35.92;25.10;;;;;;;;;;4913563;29;20943;-91
2022/04/21 16:19:55;;;;;;;34.67;25.65;;;;;;;;;;4917351;29;20107;-87
2022/04/21 16:22:21;;;;;;;37.38;25.67;;;;;;;;;;4915373;29;20048;-91
2022/04/21 16:24:48;;;;;;;35.17;25.30;;;;;;;;;;4917185;29;20084;-91
2022/04/21 16:27:14;;;;;;;35.00;24.73;;;;;;;;;;4912932;29;20073;-88
2022/04/21 16:29:41;;;;;;;36.38;25.35;;;;;;;;;;4914024;29;20049;-90
2022/04/21 16:32:09;;;;;;;36.45;26.00;;;;;;;;;;4915881;29;20047;-90
2022/04/21 16:34:36;;;;;;;40.08;26.65;;;;;;;;;;4916741;29;20107;-90
2022/04/21 16:37:03;;;;;;;41.08;29.15;;;;;;;;;;4914879;29;20048;-90
2022/04/21 16:39:30;;;;;;;46.55;32.55;;;;;;;;;;4897892;29;20131;-89
2022/04/21 16:41:57;;;;;;;46.78;32.65;;;;;;;;;;4900301;29;20135;-90
2022/04/21 16:44:26;;;;;;;45.45;32.78;;;;;;;;;;4924331;28;20119;-85
2022/04/21 16:46:52;;;;;;;46.78;31.65;;;;;;;;;;4926940;28;20075;-86
2022/04/21 16:49:19;;;;;;;54.28;32.40;;;;;;;;;;4904424;29;20083;-80
2022/04/21 16:51:45;;;;;;;50.00;34.00;;;;;;;;;;4923595;29;20052;-90
2022/04/21 16:54:12;;;;;;;47.88;33.55;;;;;;;;;;4922458;28;20496;-89
2022/04/21 16:56:38;;;;;;;47.65;32.97;;;;;;;;;;4920425;28;20056;-89
2022/04/21 16:59:05;;;;;;;51.08;34.75;;;;;;;;;;4926110;28;20051;-89
2022/04/21 17:04:39;;;;;;;53.75;37.83;;;;;;;;;;4915749;29;20064;-90
2022/04/21 17:07:06;;;;;;;52.60;37.03;;;;;;;;;;4902685;29;20123;-89
2022/04/21 17:09:33;;;;;;;58.05;38.05;;;;;;;;;;4903241;29;20132;-89
2022/04/21 17:12:00;;;;;;;56.90;38.75;;;;;;;;;;4903740;29;20511;-91
2022/04/21 17:14:27;;;;;;;55.35;36.35;;;;;;;;;;4921904;29;20099;-90
2022/04/21 17:16:53;;;;;;;55.65;35.97;;;;;;;;;;4926568;29;20627;-88
2022/04/21 17:19:22;;;;;;;58.70;37.08;;;;;;;;;;4904291;29;20126;-88
2022/04/21 17:21:49;;;;;;;49.83;36.53;;;;;;;;;;4917283;29;20529;-86
2022/04/21 17:24:16;;;;;;;57.55;37.25;;;;;;;;;;4916549;29;20161;-85
2022/04/21 17:26:43;;;;;;;55.30;35.10;;;;;;;;;;4900684;29;20056;-84
2022/04/21 17:29:10;;;;;;;50.95;35.95;;;;;;;;;;4917923;29;20123;-85
2022/04/21 17:31:37;;;;;;;52.03;35.60;;;;;;;;;;4920336;29;20052;-86
2022/04/21 17:34:04;;;;;;;55.72;35.92;;;;;;;;;;4917900;29;20044;-86
2022/04/21 17:36:30;;;;;;;52.72;36.13;;;;;;;;;;4937311;28;20051;-88
2022/04/21 17:38:57;;;;;;;52.95;37.00;;;;;;;;;;4927423;29;20054;-87
2022/04/21 17:41:24;;;;;;;51.20;34.67;;;;;;;;;;4929824;28;20142;-86
2022/04/21 17:43:51;;;;;;;61.55;36.50;;;;;;;;;;4930427;28;20135;-87
2022/04/21 17:46:17;;;;;;;59.10;35.25;;;;;;;;;;4929777;28;20154;-87
2022/04/21 17:48:44;;;;;;;54.60;35.17;;;;;;;;;;4929913;28;20060;-86
2022/04/21 17:51:11;;;;;;;53.08;34.72;;;;;;;;;;4929646;28;20129;-84
2022/04/21 17:53:38;;;;;;;49.20;33.58;;;;;;;;;;4929600;28;20134;-85
2022/04/21 17:56:06;;;;;;;54.10;34.88;;;;;;;;;;4927169;28;20078;-84
2022/04/21 17:58:33;;;;;;;50.53;34.47;;;;;;;;;;4929905;28;20458;-86
2022/04/21 18:01:00;;;;;;;55.83;35.17;;;;;;;;;;4929603;28;20136;-86
2022/04/21 18:03:27;;;;;;;54.45;34.97;;;;;;;;;;4929869;28;20118;-86
2022/04/21 18:05:54;;;;;;;57.80;36.10;;;;;;;;;;4927933;28;20068;-87
2022/04/21 18:08:20;;;;;;;53.70;35.22;;;;;;;;;;4926983;28;20075;-87
2022/04/21 18:10:53;;;;;;;57.22;36.45;;;;;;;;;;4928818;28;20048;-87
2022/04/21 18:13:21;;;;;;;55.97;35.83;;;;;;;;;;4929291;28;20047;-86
2022/04/21 18:15:47;;;;;;;56.03;36.05;;;;;;;;;;4933230;28;20162;-85
2022/04/21 18:18:14;;;;;;;63.50;35.92;;;;;;;;;;4958703;28;20513;-85
2022/04/21 18:20:41;;;;;;;55.08;36.17;;;;;;;;;;4929442;28;20075;-85
2022/04/21 18:23:08;;;;;;;61.95;36.78;;;;;;;;;;4928515;28;20803;-85
2022/04/21 18:25:35;;;;;;;60.10;37.78;;;;;;;;;;4929232;28;20575;-84
2022/04/21 18:28:02;;;;;;;61.35;37.58;;;;;;;;;;4928795;28;20538;-85
2022/04/21 18:30:29;;;;;;;65.38;40.25;;;;;;;;;;4938027;28;20139;-85
2022/04/21 18:32:56;;;;;;;76.38;42.97;;;;;;;;;;4928093;28;20166;-84
2022/04/21 18:35:23;;;;;;;62.60;38.85;;;;;;;;;;4928741;28;20150;-83
2022/04/21 18:37:50;;;;;;;67.22;40.97;;;;;;;;;;4934968;28;20047;-85
2022/04/21 18:40:18;;;;;;;70.55;42.58;;;;;;;;;;4928643;28;20048;-84
2022/04/21 18:42:44;;;;;;;71.13;43.30;;;;;;;;;;4927525;28;20048;-83
2022/04/21 18:45:12;;;;;;;77.85;46.60;;;;;;;;;;4922372;28;20556;-84
2022/04/21 18:47:38;;;;;;;78.47;46.30;;;;;;;;;;4926979;28;20157;-84
2022/04/21 18:50:05;;;;;;;86.43;47.83;;;;;;;;;;4930932;28;20067;-83
2022/04/21 18:52:32;;;;;;;85.20;46.78;;;;;;;;;;4946723;28;20047;-86
2022/04/21 18:54:59;;;;;;;85.15;48.58;;;;;;;;;;4936339;28;20063;-83
2022/04/21 18:58:23;;;;;;;84.45;47.63;;;;;;;;;;4929847;28;20525;-84
2022/04/21 19:00:15;;;;;;;82.30;47.42;;;;;;;;;;4929122;28;20130;-85
2022/04/21 19:02:42;;;;;;;84.75;47.80;;;;;;;;;;4925726;28;20115;-85
2022/04/21 19:05:09;;;;;;;80.55;47.95;;;;;;;;;;4930804;28;20048;-84
2022/04/21 19:07:35;;;;;;;84.97;47.08;;;;;;;;;;4928881;28;20050;-85
2022/04/21 19:10:02;;;;;;;80.75;45.97;;;;;;;;;;4927603;28;20075;-85
2022/04/21 19:12:31;;;;;;;90.75;48.75;;;;;;;;;;4926959;28;20046;-85
2022/04/21 19:14:58;;;;;;;92.07;50.25;;;;;;;;;;4928589;28;20075;-84
2022/04/21 19:17:25;;;;;;;88.68;48.40;;;;;;;;;;4927738;28;20475;-84
2022/04/21 19:19:51;;;;;;;91.38;49.35;;;;;;;;;;4928276;28;20071;-84
2022/04/21 19:22:18;;;;;;;83.60;49.88;;;;;;;;;;4927268;28;20048;-85
2022/04/21 19:24:46;;;;;;;89.97;49.97;;;;;;;;;;4928857;28;20138;-84
2022/04/21 19:27:17;;;;;;;91.50;50.08;;;;;;;;;;4929299;28;20866;-88
2022/04/21 19:29:47;;;;;;;92.25;50.38;;;;;;;;;;4928116;28;20540;-86
2022/04/21 19:32:20;;;;;;;91.70;49.80;;;;;;;;;;4928549;28;20052;-85
2022/04/21 19:34:48;;;;;;;91.07;50.92;;;;;;;;;;4929283;28;20520;-86
2022/04/21 19:37:15;;;;;;;88.88;49.90;;;;;;;;;;4927222;28;20079;-86
2022/04/21 19:39:42;;;;;;;91.28;48.53;;;;;;;;;;4928082;28;20078;-85
2022/04/21 19:42:11;;;;;;;88.20;47.95;;;;;;;;;;4927447;28;20139;-84
2022/04/21 19:44:38;;;;;;;87.43;48.75;;;;;;;;;;4927645;28;20134;-86
2022/04/21 19:47:05;;;;;;;87.35;47.75;;;;;;;;;;4930324;28;20099;-84
2022/04/21 19:49:36;;;;;;;87.40;47.40;;;;;;;;;;4928639;28;20051;-87
2022/04/21 19:52:04;;;;;;;84.57;47.17;;;;;;;;;;4926931;28;20138;-87
2022/04/21 19:54:31;;;;;;;89.93;46.53;;;;;;;;;;4929136;28;20071;-88
2022/04/21 19:56:57;;;;;;;82.57;46.17;;;;;;;;;;4929555;28;20127;-87
2022/04/21 19:59:24;;;;;;;85.05;44.13;;;;;;;;;;4927707;28;20062;-85
2022/04/21 20:01:51;;;;;;;80.70;43.70;;;;;;;;;;4927813;28;20114;-85
2022/04/21 20:04:29;;;;;;;69.53;39.42;;;;;;;;;;4927345;28;20428;-86
2022/04/21 20:09:44;;;;;;;67.15;38.58;;;;;;;;;;4927608;28;20063;-85
2022/04/21 20:12:10;;;;;;;63.05;37.75;;;;;;;;;;4925361;28;20052;-86
2022/04/21 20:14:37;;;;;;;62.45;37.22;;;;;;;;;;4923785;28;20470;-86
2022/04/21 20:17:05;;;;;;;65.65;37.67;;;;;;;;;;4929371;28;20054;-83
2022/04/21 20:22:17;;;;;;;68.85;39.22;;;;;;;;;;4926099;28;20126;-86
2022/04/21 20:27:32;;;;;;;72.63;40.67;;;;;;;;;;4923857;28;20074;-86
2022/04/21 20:29:59;;;;;;;72.35;40.38;;;;;;;;;;4927419;28;20166;-86
2022/04/21 20:32:28;;;;;;;72.78;41.55;;;;;;;;;;4961078;28;20393;-85
2022/04/21 20:34:55;;;;;;;67.70;39.72;;;;;;;;;;4928659;28;20051;-89
2022/04/21 20:37:25;;;;;;;71.03;41.50;;;;;;;;;;4928669;28;20056;-87
2022/04/21 20:39:53;;;;;;;81.10;42.10;;;;;;;;;;4930409;28;20140;-86
2022/04/21 20:42:19;;;;;;;80.10;40.40;;;;;;;;;;4930149;28;20082;-86
2022/04/21 20:44:46;;;;;;;79.07;42.00;;;;;;;;;;4929065;28;20051;-88
2022/04/21 20:47:15;;;;;;;74.10;43.13;;;;;;;;;;4929662;28;20083;-85
2022/04/21 20:49:43;;;;;;;67.75;40.75;;;;;;;;;;4928050;28;20051;-84
2022/04/21 20:52:11;;;;;;;72.32;40.75;;;;;;;;;;4929822;28;20134;-84
2022/04/21 20:54:41;;;;;;;74.20;41.35;;;;;;;;;;4928586;28;20122;-86
2022/04/21 20:57:09;;;;;;;73.07;39.03;;;;;;;;;;4928226;28;20048;-85
2022/04/21 20:59:37;;;;;;;61.42;37.20;;;;;;;;;;4929030;28;20166;-84
2022/04/21 21:02:05;;;;;;;62.38;36.03;;;;;;;;;;4929246;28;20043;-84
2022/04/21 21:04:37;;;;;;;58.97;36.63;;;;;;;;;;4929637;28;20512;-85
2022/04/21 21:07:15;;;;;;;63.22;35.13;;;;;;;;;;4929803;28;20152;-82
2022/04/21 21:09:46;;;;;;;56.30;34.10;;;;;;;;;;4932395;28;20067;-84
2022/04/21 21:12:13;;;;;;;58.78;34.08;;;;;;;;;;4929339;28;20106;-85
2022/04/21 21:14:41;;;;;;;50.40;32.45;;;;;;;;;;4931722;28;20106;-85
2022/04/21 21:17:24;;;;;;;52.63;32.33;;;;;;;;;;4930160;28;20048;-86
2022/04/21 21:19:51;;;;;;;56.92;32.88;;;;;;;;;;4933013;28;20062;-85
2022/04/21 21:22:18;;;;;;;56.30;33.47;;;;;;;;;;4928670;28;20047;-85
2022/04/21 21:24:45;;;;;;;53.25;33.08;;;;;;;;;;4928093;28;20044;-85